Jacksonville Naval Air Station
KNIP : now visible

Airfield :











YOU CAN JOIN US ON...

 
LOGIN :

Register | Disclaimer

   EN    FR    IT 

 









Legend :    VFR   Marginal VFR   IFR   Intensive IFR   Very Intensive IFR
Visi :
Ceiling :
>= 8 km
>= 3000ft
5 to 8 km
1000 to 3000 ft
1500m to 5 km
500 to 1000 ft
800 to 1500m
200 to 500 ft
< 800m
< 200 ft
Symbols :   Thunderstorms  Fog  Heavy snow  Heavy precipitations  Wind > 20 kt






- Airport Elevation : 21 ft


KNIP - Jacksonville Naval Air Station

CURRENT METAR :
  • 190453Z 19010KT 10SM BKN250 19/14 A3018 RMK AO2 SLP216 T01940144 402500139

EXPIRED METARs :
  • 190353Z 19008KT 10SM SCT250 19/14 A3019 RMK AO2 SLP220 T01940144
  • 190253Z 19007KT 10SM SCT250 19/14 A3020 RMK AO2 SLP222 T01940139 58004

TAF TAF KNIP
Valid from the 18 at 23:00 until the 19 at 23:00 UTC


1823/1923 15010KT 9999 FEW045 BKN250 QNH3023INS
BECMG 1910/1912 23010KT 9999 VCSH BKN050 QNH3001INS
TEMPO 1917/1923 6000 -SHRA BKN005 OVC010 T18/1915Z T22/1918Z FN00205



MET'MAP, your aeronautical weather chart ! - Copyright ORBIFLY December 2007 - Disclaimer

ORBIFLY MET'MAP TEAM :

Programming & Development : Alexandra Zaïnal
Concept & original design : Baudouin d'Aumeries
Assistance for programming : Marc-Olivier Méhu
Technical & hardware support : Manuel Goepfert

Contact : metmap@orbifly.com




SOURCES & CREDITS :

   NOAA       Earth
Advisory